Terminal Aerodrome Forecast
Issued by NWS Corpus Christi, TX

Home | Current Version | Previous Version | Text Only | Print | Product List | Glossary On
Versions: 1 2 3 4 5 6 7 8 9 10 11 12 13 14 15 16 17 18 19
000
FTUS44 KCRP 021723
TAFCRP
TAF
KCRP 021723Z 0218/0318 15014G21KT P6SM SCT025 SCT030 SCT250
     FM022000 14018G25KT P6SM SCT030 SCT250
     FM030300 15012KT P6SM SCT020 SCT250
     FM030800 16009KT P6SM BKN015
     FM031500 15013G20KT P6SM BKN030=

USA.gov is the U.S. government's official web portal to all federal, state and local government web resources and services.